createdAt,value
2022-09-20T00:01:07.690Z,86.25
2022-09-20T00:03:36.329Z,86.02
2022-09-20T00:06:05.140Z,85.76
2022-09-20T00:08:34.799Z,85.73
2022-09-20T00:11:03.274Z,85.56
2022-09-20T00:13:31.804Z,85.87
2022-09-20T00:16:00.104Z,85.92
2022-09-20T00:18:28.396Z,85.71
2022-09-20T00:20:56.178Z,85.75
2022-09-20T00:23:23.817Z,85.87
2022-09-20T00:26:00.622Z,85.96
2022-09-20T00:28:29.081Z,85.90
2022-09-20T00:30:57.622Z,86.12
2022-09-20T00:33:46.316Z,86.43
2022-09-20T00:36:13.049Z,86.16
2022-09-20T00:38:40.834Z,86.11
2022-09-20T00:41:09.917Z,86.66
2022-09-20T00:43:39.841Z,86.57
2022-09-20T00:46:20.778Z,86.74
2022-09-20T00:48:50.314Z,87.00
2022-09-20T00:51:24.613Z,87.19
2022-09-20T00:53:53.601Z,87.12
2022-09-20T00:56:28.256Z,87.44
2022-09-20T00:59:05.359Z,87.31
2022-09-20T01:01:33.210Z,87.87
2022-09-20T01:04:02.054Z,87.61
2022-09-20T01:06:31.013Z,87.15
2022-09-20T01:09:02.705Z,87.38
2022-09-20T01:11:32.225Z,87.33
2022-09-20T01:13:59.926Z,87.32
2022-09-20T01:16:29.102Z,87.49
2022-09-20T01:18:59.736Z,86.32
2022-09-20T01:21:29.711Z,86.88
2022-09-20T01:24:06.289Z,86.73
2022-09-20T01:26:50.750Z,87.41
2022-09-20T01:29:34.894Z,87.25
2022-09-20T01:32:08.192Z,86.90
2022-09-20T01:34:37.996Z,86.84
2022-09-20T01:37:12.679Z,87.06
2022-09-20T01:39:48.900Z,86.99
2022-09-20T01:42:16.645Z,87.31
2022-09-20T01:44:55.540Z,87.22
2022-09-20T01:47:39.530Z,88.36
2022-09-20T01:50:16.220Z,88.73
2022-09-20T01:53:13.613Z,88.74
2022-09-20T01:56:19.722Z,88.91
2022-09-20T01:59:24.593Z,88.75
2022-09-20T02:02:10.562Z,89.04
2022-09-20T02:05:10.728Z,89.34
2022-09-20T02:08:14.046Z,88.86
2022-09-20T02:11:21.139Z,89.03
2022-09-20T02:14:05.990Z,88.30
2022-09-20T02:16:49.883Z,89.15
2022-09-20T02:19:40.703Z,88.96
2022-09-20T02:22:42.790Z,88.87
2022-09-20T02:25:24.646Z,89.00
2022-09-20T02:28:07.298Z,88.72
2022-09-20T02:30:42.426Z,89.09
2022-09-20T02:33:22.510Z,88.97
2022-09-20T02:36:10.066Z,89.19
2022-09-20T02:38:47.445Z,89.11
2022-09-20T02:41:42.995Z,88.78
2022-09-20T02:44:19.699Z,89.17
2022-09-20T02:46:56.962Z,88.55
2022-09-20T02:49:34.526Z,88.40
2022-09-20T02:52:12.356Z,89.11
2022-09-20T02:54:52.649Z,88.85
2022-09-20T02:57:27.919Z,89.12
2022-09-20T02:59:59.641Z,88.92
2022-09-20T03:02:31.392Z,89.22
2022-09-20T03:05:14.730Z,89.01
2022-09-20T03:08:05.281Z,89.69
2022-09-20T03:10:38.496Z,89.54
2022-09-20T03:13:17.603Z,89.21
2022-09-20T03:15:54.851Z,89.39
2022-09-20T03:18:34.213Z,89.77
2022-09-20T03:21:13.102Z,90.46
2022-09-20T03:23:55.465Z,90.82
2022-09-20T03:26:35.612Z,90.69
2022-09-20T03:29:06.361Z,90.68
2022-09-20T03:31:45.714Z,91.21
2022-09-20T03:34:27.258Z,91.06
2022-09-20T03:37:08.988Z,91.60
2022-09-20T03:40:02.963Z,91.68
2022-09-20T03:42:32.032Z,91.61
2022-09-20T03:45:25.308Z,91.56
2022-09-20T03:48:16.524Z,91.52
2022-09-20T03:51:01.887Z,91.81
2022-09-20T03:53:46.332Z,92.03
2022-09-20T03:56:42.814Z,92.01
2022-09-20T03:59:27.762Z,92.14
2022-09-20T04:02:18.758Z,91.96
2022-09-20T04:04:53.389Z,91.82
2022-09-20T04:07:33.552Z,91.70
2022-09-20T04:10:20.044Z,91.83
2022-09-20T04:13:03.958Z,91.50
2022-09-20T04:15:42.798Z,91.43
2022-09-20T04:18:21.001Z,91.40
2022-09-20T04:20:54.180Z,91.68
2022-09-20T04:23:33.717Z,91.46
2022-09-20T04:26:03.350Z,91.43
2022-09-20T04:28:40.662Z,91.48
2022-09-20T04:31:23.814Z,91.37
2022-09-20T04:33:55.456Z,91.34
2022-09-20T04:36:38.324Z,90.92
2022-09-20T04:39:21.962Z,91.05
2022-09-20T04:42:20.189Z,91.13
2022-09-20T04:45:37.182Z,90.69
2022-09-20T04:48:43.370Z,90.69
2022-09-20T04:51:51.175Z,91.11
2022-09-20T04:54:59.914Z,90.82
2022-09-20T04:58:04.659Z,90.61
2022-09-20T05:00:49.725Z,90.59
2022-09-20T05:03:40.334Z,90.87
2022-09-20T05:06:37.272Z,90.31
2022-09-20T05:09:34.349Z,90.57
2022-09-20T05:12:35.988Z,90.48
2022-09-20T05:15:23.125Z,90.48
2022-09-20T05:18:20.894Z,90.43
2022-09-20T05:21:07.586Z,90.63
2022-09-20T05:24:09.545Z,90.78
2022-09-20T05:26:52.670Z,90.95
2022-09-20T05:29:29.493Z,90.93
2022-09-20T05:32:04.953Z,90.82
2022-09-20T05:34:43.722Z,90.84
2022-09-20T05:37:23.424Z,90.40
2022-09-20T05:39:59.178Z,90.45
2022-09-20T05:42:37.471Z,90.65
2022-09-20T05:45:21.515Z,90.80
2022-09-20T05:48:03.290Z,90.65
2022-09-20T05:50:46.006Z,90.40
2022-09-20T05:53:40.652Z,90.03
2022-09-20T05:56:19.145Z,90.11
2022-09-20T05:59:02.085Z,90.04
2022-09-20T06:01:35.404Z,90.02
2022-09-20T06:04:13.782Z,90.06
2022-09-20T06:06:54.582Z,89.98
2022-09-20T06:09:37.049Z,89.35
2022-09-20T06:12:19.313Z,89.05
2022-09-20T06:14:52.094Z,88.62
2022-09-20T06:17:28.533Z,88.43
2022-09-20T06:20:14.265Z,88.19
2022-09-20T06:22:47.166Z,88.06
2022-09-20T06:25:21.621Z,87.80
2022-09-20T06:27:54.738Z,87.99
2022-09-20T06:30:25.583Z,87.60
2022-09-20T06:32:58.643Z,87.28
2022-09-20T06:35:35.726Z,87.29
2022-09-20T06:38:36.830Z,87.44
2022-09-20T06:41:22.896Z,87.38
2022-09-20T06:43:50.763Z,87.37
2022-09-20T06:46:19.217Z,87.48
2022-09-20T06:48:47.232Z,87.24
2022-09-20T06:51:14.920Z,86.79
2022-09-20T06:53:43.967Z,86.89
2022-09-20T06:56:17.832Z,86.92
2022-09-20T06:58:45.462Z,86.26
2022-09-20T07:01:13.713Z,86.90
2022-09-20T07:03:41.658Z,86.38
2022-09-20T07:06:10.537Z,85.93
2022-09-20T07:08:38.581Z,85.71
2022-09-20T07:11:10.224Z,85.82
2022-09-20T07:13:37.909Z,86.37
2022-09-20T07:16:07.349Z,86.49
2022-09-20T07:18:35.914Z,86.37
2022-09-20T07:21:05.134Z,86.30
2022-09-20T07:23:33.208Z,86.59
2022-09-20T07:26:01.248Z,86.76
2022-09-20T07:28:31.600Z,86.45
2022-09-20T07:30:59.679Z,85.51
2022-09-20T07:33:27.420Z,84.66
2022-09-20T07:35:56.043Z,84.70
2022-09-20T07:38:24.414Z,84.94
2022-09-20T07:41:00.501Z,84.87
2022-09-20T07:43:30.262Z,85.36
2022-09-20T07:45:59.332Z,85.52
2022-09-20T07:48:28.856Z,85.00
2022-09-20T07:50:58.030Z,85.25
2022-09-20T07:53:26.368Z,84.35
2022-09-20T07:55:58.503Z,84.08
2022-09-20T07:58:27.081Z,83.71
2022-09-20T08:00:58.307Z,83.40
2022-09-20T08:03:26.844Z,81.85
2022-09-20T08:06:00.638Z,80.91
2022-09-20T08:08:29.925Z,80.10
2022-09-20T08:11:05.339Z,78.88
2022-09-20T08:16:25.132Z,77.63
2022-09-20T08:18:55.615Z,77.21
2022-09-20T08:21:23.287Z,75.74
2022-09-20T08:23:51.153Z,76.38
2022-09-20T08:26:21.129Z,75.98
2022-09-20T08:28:52.632Z,75.83
2022-09-20T08:31:21.879Z,76.33
2022-09-20T08:33:52.595Z,75.22
2022-09-20T08:36:22.532Z,75.34
2022-09-20T08:41:41.087Z,74.97
2022-09-20T08:44:16.461Z,74.21
2022-09-20T08:46:48.363Z,74.94
2022-09-20T08:49:26.110Z,73.39
2022-09-20T08:51:54.836Z,74.15
2022-09-20T08:54:24.282Z,73.00
2022-09-20T08:56:52.527Z,72.28
2022-09-20T08:59:23.045Z,71.83
2022-09-20T09:01:52.132Z,72.36
2022-09-20T09:04:26.358Z,72.42
2022-09-20T09:06:54.070Z,72.27
2022-09-20T09:09:24.626Z,70.94
2022-09-20T09:11:53.126Z,70.51
2022-09-20T09:14:45.141Z,71.17
2022-09-20T09:17:14.778Z,70.64
2022-09-20T09:19:48.893Z,69.38
2022-09-20T09:22:26.390Z,68.36
2022-09-20T09:25:25.378Z,66.67
2022-09-20T09:27:55.369Z,66.89
2022-09-20T09:30:26.734Z,65.46
2022-09-20T09:33:14.826Z,66.57
2022-09-20T09:35:45.297Z,66.14
2022-09-20T09:38:21.553Z,65.94
2022-09-20T09:40:54.633Z,66.05
2022-09-20T09:43:27.041Z,66.38
2022-09-20T09:45:55.236Z,67.03
2022-09-20T09:48:26.880Z,67.91
2022-09-20T09:51:11.757Z,67.11
2022-09-20T09:53:40.734Z,67.80
2022-09-20T09:56:29.276Z,67.35
2022-09-20T09:59:13.483Z,67.78
2022-09-20T10:01:47.945Z,67.53
2022-09-20T10:04:23.797Z,67.70
2022-09-20T10:06:59.307Z,67.70
2022-09-20T10:09:46.143Z,67.12
2022-09-20T10:12:25.613Z,67.12
2022-09-20T10:15:11.184Z,66.09
2022-09-20T10:17:52.817Z,63.86
2022-09-20T10:20:38.845Z,63.52
2022-09-20T10:23:51.532Z,62.76
2022-09-20T10:26:21.630Z,61.62
2022-09-20T10:29:02.351Z,61.24
2022-09-20T10:31:44.206Z,61.59
2022-09-20T10:34:50.916Z,61.55
2022-09-20T10:37:27.464Z,61.61
2022-09-20T10:40:06.354Z,62.52
2022-09-20T10:43:00.710Z,61.65
2022-09-20T10:46:08.432Z,60.87
2022-09-20T10:48:32.694Z,60.71
2022-09-20T10:51:05.088Z,59.21
2022-09-20T10:53:38.100Z,59.45
2022-09-20T10:56:20.874Z,59.11
2022-09-20T10:59:19.090Z,58.64
2022-09-20T11:01:57.648Z,59.28
2022-09-20T11:04:56.305Z,58.81
2022-09-20T11:07:35.043Z,58.13
2022-09-20T11:10:07.562Z,57.14
2022-09-20T11:12:42.723Z,56.67
2022-09-20T11:15:18.267Z,56.72
2022-09-20T11:17:53.413Z,55.87
2022-09-20T11:20:26.061Z,55.92
2022-09-20T11:23:00.077Z,56.54
2022-09-20T11:25:34.531Z,57.80
2022-09-20T11:28:10.645Z,57.36
2022-09-20T11:30:44.782Z,57.43
2022-09-20T11:33:22.614Z,56.58
2022-09-20T11:35:53.277Z,56.95
2022-09-20T11:38:26.337Z,55.99
2022-09-20T11:40:58.102Z,55.69
2022-09-20T11:43:29.010Z,55.46
2022-09-20T11:45:59.886Z,52.83
2022-09-20T11:48:32.308Z,53.92
2022-09-20T11:51:29.237Z,53.81
2022-09-20T11:54:12.783Z,54.68
2022-09-20T11:56:40.553Z,53.09
2022-09-20T11:59:30.175Z,53.62
2022-09-20T12:02:01.684Z,54.29
2022-09-20T12:04:33.819Z,54.24
2022-09-20T12:07:09.730Z,55.38
2022-09-20T12:09:41.840Z,52.61
2022-09-20T12:12:22.202Z,54.35
2022-09-20T12:14:57.057Z,53.34
2022-09-20T12:18:08.876Z,55.30
2022-09-20T12:21:15.917Z,53.75
2022-09-20T12:24:22.765Z,53.29
2022-09-20T12:26:53.259Z,53.21
2022-09-20T12:30:16.000Z,52.31
2022-09-20T12:32:51.866Z,53.05
2022-09-20T12:35:53.148Z,52.47
2022-09-20T12:38:39.069Z,53.09
2022-09-20T12:41:13.977Z,53.03
2022-09-20T12:43:58.157Z,52.77
2022-09-20T12:46:31.278Z,53.38
2022-09-20T12:50:03.793Z,52.55
2022-09-20T12:52:57.530Z,52.23
2022-09-20T12:55:43.626Z,50.64
2022-09-20T12:58:27.391Z,51.71
2022-09-20T13:01:32.719Z,51.50
2022-09-20T13:04:37.875Z,50.65
2022-09-20T13:07:38.797Z,48.50
2022-09-20T13:10:30.105Z,49.93
2022-09-20T13:13:03.342Z,48.41
2022-09-20T13:15:33.072Z,48.42
2022-09-20T13:18:03.085Z,46.92
2022-09-20T13:20:34.912Z,47.45
2022-09-20T13:23:06.197Z,46.69
2022-09-20T13:25:34.790Z,47.68
2022-09-20T13:28:09.217Z,48.47
2022-09-20T13:30:40.473Z,48.01
2022-09-20T13:33:24.204Z,49.22
2022-09-20T13:35:57.093Z,49.42
2022-09-20T13:38:31.727Z,49.69
2022-09-20T13:41:06.122Z,50.68
2022-09-20T13:43:38.641Z,51.12
2022-09-20T13:46:11.526Z,51.14
2022-09-20T13:48:40.687Z,52.58
2022-09-20T13:51:18.733Z,53.39
2022-09-20T13:53:48.235Z,53.98
2022-09-20T13:56:21.585Z,53.86
2022-09-20T13:58:50.416Z,54.16
2022-09-20T14:01:27.646Z,53.09
2022-09-20T14:03:56.007Z,54.11
2022-09-20T14:06:29.524Z,53.61
2022-09-20T14:09:03.569Z,54.41
2022-09-20T14:11:35.894Z,54.47
2022-09-20T14:14:07.914Z,55.11
2022-09-20T14:16:40.701Z,55.23
2022-09-20T14:19:09.552Z,55.24
2022-09-20T14:21:39.066Z,54.62
2022-09-20T14:24:23.712Z,54.04
2022-09-20T14:27:03.397Z,53.85
2022-09-20T14:29:39.942Z,54.42
2022-09-20T14:32:16.717Z,54.66
2022-09-20T14:34:45.986Z,54.69
2022-09-20T14:37:25.634Z,54.21
2022-09-20T14:39:57.595Z,53.95
2022-09-20T14:42:35.699Z,54.01
2022-09-20T14:45:04.961Z,53.39
2022-09-20T14:47:38.739Z,53.09
2022-09-20T14:50:24.544Z,52.68
2022-09-20T14:53:17.443Z,52.60
2022-09-20T14:56:01.391Z,52.41
2022-09-20T14:58:29.452Z,52.97
2022-09-20T15:01:01.533Z,53.31
2022-09-20T15:03:32.998Z,53.58
2022-09-20T15:06:00.806Z,52.99
2022-09-20T15:08:28.772Z,52.73
2022-09-20T15:10:57.821Z,52.39
2022-09-20T15:13:25.698Z,52.70
2022-09-20T15:15:54.588Z,52.30
2022-09-20T15:18:25.251Z,52.44
2022-09-20T15:20:53.891Z,52.43
2022-09-20T15:23:21.825Z,53.09
2022-09-20T15:25:52.139Z,53.40
2022-09-20T15:28:22.054Z,53.99
2022-09-20T15:30:51.456Z,53.67
2022-09-20T15:33:20.425Z,54.51
2022-09-20T15:35:49.145Z,54.65
2022-09-20T15:38:18.615Z,54.11
2022-09-20T15:40:48.205Z,54.34
2022-09-20T15:43:17.498Z,54.37
2022-09-20T15:45:50.650Z,54.02
2022-09-20T15:48:20.795Z,55.11
2022-09-20T15:51:01.864Z,55.53
2022-09-20T15:53:31.733Z,56.07
2022-09-20T15:56:01.227Z,56.72
2022-09-20T15:58:33.512Z,56.45
2022-09-20T16:01:06.339Z,56.42
2022-09-20T16:03:34.620Z,56.98
2022-09-20T16:06:04.844Z,57.46
2022-09-20T16:08:33.665Z,57.66
2022-09-20T16:11:02.035Z,57.40
2022-09-20T16:13:30.105Z,57.51
2022-09-20T16:15:58.659Z,57.66
2022-09-20T16:18:45.355Z,57.39
2022-09-20T16:21:16.071Z,57.46
2022-09-20T16:23:47.871Z,57.80
2022-09-20T16:26:15.505Z,57.83
2022-09-20T16:28:47.462Z,58.36
2022-09-20T16:31:32.650Z,58.55
2022-09-20T16:34:02.698Z,58.28
2022-09-20T16:36:30.465Z,59.11
2022-09-20T16:38:58.565Z,59.11
2022-09-20T16:41:28.285Z,58.44
2022-09-20T16:44:03.507Z,58.52
2022-09-20T16:46:32.839Z,59.22
2022-09-20T16:49:02.039Z,59.49
2022-09-20T16:51:33.231Z,59.42
2022-09-20T16:54:03.160Z,59.46
2022-09-20T16:56:33.833Z,59.52
2022-09-20T16:59:02.407Z,59.92
2022-09-20T17:01:31.481Z,60.38
2022-09-20T17:04:05.300Z,60.81
2022-09-20T17:06:35.082Z,60.71
2022-09-20T17:09:05.874Z,61.30
2022-09-20T17:11:35.965Z,61.69
2022-09-20T17:14:04.452Z,62.20
2022-09-20T17:16:33.931Z,62.38
2022-09-20T17:19:05.944Z,63.15
2022-09-20T17:21:35.942Z,63.28
2022-09-20T17:24:07.103Z,63.48
2022-09-20T17:26:38.212Z,63.86
2022-09-20T17:29:07.519Z,64.46
2022-09-20T17:31:36.779Z,64.76
2022-09-20T17:34:07.722Z,64.91
2022-09-20T17:36:39.660Z,65.45
2022-09-20T17:39:10.028Z,65.63
2022-09-20T17:41:38.356Z,65.98
2022-09-20T17:44:08.206Z,66.24
2022-09-20T17:46:37.877Z,66.17
2022-09-20T17:49:09.143Z,66.19
2022-09-20T17:51:38.405Z,66.41
2022-09-20T17:54:06.519Z,66.37
2022-09-20T17:56:35.705Z,66.75
2022-09-20T17:59:05.516Z,67.14
2022-09-20T18:01:34.939Z,67.42
2022-09-20T18:04:03.873Z,68.11
2022-09-20T18:06:43.058Z,68.62
2022-09-20T18:09:13.215Z,68.76
2022-09-20T18:11:44.083Z,69.52
2022-09-20T18:14:17.716Z,69.67
2022-09-20T18:16:50.219Z,69.62
2022-09-20T18:19:17.701Z,69.71
2022-09-20T18:21:46.805Z,69.78
2022-09-20T18:24:14.446Z,70.02
2022-09-20T18:26:42.132Z,70.40
2022-09-20T18:29:14.143Z,70.56
2022-09-20T18:31:45.136Z,70.81
2022-09-20T18:34:15.422Z,70.66
2022-09-20T18:36:43.329Z,71.01
2022-09-20T18:39:13.042Z,71.44
2022-09-20T18:41:43.076Z,71.69
2022-09-20T18:44:14.114Z,72.10
2022-09-20T18:46:41.899Z,71.90
2022-09-20T18:49:14.431Z,72.38
2022-09-20T18:51:42.337Z,72.89
2022-09-20T18:54:12.388Z,72.85
2022-09-20T18:56:41.552Z,73.04
2022-09-20T18:59:15.805Z,73.10
2022-09-20T19:02:14.013Z,73.32
2022-09-20T19:05:13.931Z,73.49
2022-09-20T19:07:52.522Z,73.77
2022-09-20T19:10:37.331Z,73.55
2022-09-20T19:13:13.055Z,73.90
2022-09-20T19:15:57.419Z,74.05
2022-09-20T19:18:40.625Z,74.28
2022-09-20T19:21:20.875Z,74.52
2022-09-20T19:24:03.558Z,74.71
2022-09-20T19:26:37.901Z,74.42
2022-09-20T19:29:19.071Z,74.93
2022-09-20T19:31:49.165Z,75.11
2022-09-20T19:34:21.320Z,75.22
2022-09-20T19:37:02.224Z,75.55
2022-09-20T19:39:43.839Z,75.38
2022-09-20T19:42:24.467Z,75.70
2022-09-20T19:45:04.330Z,75.76
2022-09-20T19:47:46.382Z,75.85
2022-09-20T19:50:17.096Z,76.18
2022-09-20T19:52:45.561Z,76.36
2022-09-20T19:55:14.627Z,76.27
2022-09-20T19:57:47.004Z,76.48
2022-09-20T20:00:15.774Z,76.94
2022-09-20T20:02:44.615Z,77.02
2022-09-20T20:05:13.731Z,77.18
2022-09-20T20:07:47.543Z,77.25
2022-09-20T20:10:23.471Z,77.31
2022-09-20T20:13:00.011Z,77.33
2022-09-20T20:15:40.180Z,77.52
2022-09-20T20:18:16.882Z,77.56
2022-09-20T20:20:48.553Z,77.55
2022-09-20T20:23:44.726Z,77.53
2022-09-20T20:26:20.614Z,77.92
2022-09-20T20:28:50.789Z,78.15
2022-09-20T20:31:18.573Z,78.72
2022-09-20T20:33:46.590Z,78.59
2022-09-20T20:36:14.621Z,78.71
2022-09-20T20:38:46.338Z,78.76
2022-09-20T20:41:15.997Z,79.25
2022-09-20T20:43:47.055Z,79.39
2022-09-20T20:46:18.715Z,79.39
2022-09-20T20:48:47.264Z,79.21
2022-09-20T20:51:16.943Z,79.17
2022-09-20T20:53:46.415Z,78.91
2022-09-20T20:56:16.657Z,78.97
2022-09-20T20:58:45.797Z,79.01
2022-09-20T21:01:16.592Z,79.16
2022-09-20T21:03:47.458Z,79.12
2022-09-20T21:06:16.432Z,79.20
2022-09-20T21:08:49.105Z,79.29
2022-09-20T21:11:19.068Z,79.29
2022-09-20T21:13:48.319Z,79.39
2022-09-20T21:16:18.887Z,79.19
2022-09-20T21:18:47.874Z,79.52
2022-09-20T21:21:18.065Z,79.48
2022-09-20T21:23:47.243Z,79.58
2022-09-20T21:26:16.226Z,79.58
2022-09-20T21:28:45.815Z,79.76
2022-09-20T21:31:14.149Z,79.77
2022-09-20T21:33:44.982Z,79.57
2022-09-20T21:36:14.926Z,79.56
2022-09-20T21:38:43.633Z,79.88
2022-09-20T21:41:12.681Z,79.98
2022-09-20T21:43:42.695Z,80.04
2022-09-20T21:46:14.547Z,79.88
2022-09-20T21:48:43.663Z,79.90
2022-09-20T21:51:13.720Z,80.22
2022-09-20T21:53:41.538Z,80.51
2022-09-20T21:56:11.371Z,80.66
2022-09-20T21:58:39.908Z,80.27
2022-09-20T22:01:10.016Z,80.48
2022-09-20T22:03:40.451Z,80.40
2022-09-20T22:06:12.050Z,80.54
2022-09-20T22:08:41.971Z,80.44
2022-09-20T22:11:14.918Z,80.48
2022-09-20T22:13:44.125Z,80.66
2022-09-20T22:16:13.665Z,80.43
2022-09-20T22:18:42.905Z,80.65
2022-09-20T22:21:14.238Z,80.65
2022-09-20T22:23:42.594Z,80.77
2022-09-20T22:26:12.111Z,80.42
2022-09-20T22:28:40.610Z,80.84
2022-09-20T22:31:11.383Z,80.71
2022-09-20T22:33:42.303Z,80.67
2022-09-20T22:36:12.167Z,80.82
2022-09-20T22:38:41.421Z,80.50
2022-09-20T22:41:09.485Z,80.77
2022-09-20T22:43:37.546Z,80.94
2022-09-20T22:46:07.549Z,81.32
2022-09-20T22:48:36.390Z,81.59
2022-09-20T22:51:07.066Z,81.14
2022-09-20T22:53:35.723Z,81.29
2022-09-20T22:56:07.019Z,81.13
2022-09-20T22:58:36.782Z,80.80
2022-09-20T23:01:06.651Z,80.85
2022-09-20T23:03:34.436Z,80.63
2022-09-20T23:06:02.955Z,81.15
2022-09-20T23:08:33.123Z,81.25
2022-09-20T23:11:02.127Z,81.12
2022-09-20T23:13:31.554Z,81.46
2022-09-20T23:15:59.226Z,81.37
2022-09-20T23:18:27.459Z,80.94
2022-09-20T23:21:02.037Z,80.99
2022-09-20T23:23:30.037Z,81.10
2022-09-20T23:26:03.764Z,80.83
2022-09-20T23:28:32.709Z,81.28
2022-09-20T23:31:04.687Z,81.11
2022-09-20T23:33:32.646Z,80.75
2022-09-20T23:36:00.432Z,80.68
2022-09-20T23:38:28.318Z,81.17
2022-09-20T23:40:55.956Z,80.63
2022-09-20T23:43:23.541Z,80.59
2022-09-20T23:45:52.587Z,80.61
2022-09-20T23:48:20.195Z,80.75
2022-09-20T23:50:47.866Z,80.98
2022-09-20T23:53:15.496Z,80.59
2022-09-20T23:55:43.565Z,81.23
2022-09-20T23:58:11.367Z,80.92
